Main page
METAR-TAF:

METAR-TAF

Airports :

Mont-De-Marsan, France

latitude: 43-55N, longitude: 000-30W, elevation: 62 m

Current weather observation

The report was made 31 minutes ago, at 19:00 UTC
Wind 4 kt from the East
Temperature 11°C
Humidity 82%
Pressure 1014 hPa
Visibility 10 km or more
no clouds below 1500 m and no cumulonimbus

METAR: LFBM 281900Z AUTO 10004KT CAVOK 11/08 Q1014 NOSIG

Time: 20:31 (19:31 UTC)

Forecast

The report was made 5 hours and 31 minutes ago, at 14:00 UTC
Forecast valid from 28 at 15 UTC to 29 at 15 UTC
Wind 4 kt from the South/Southwest
Visibility 10 km or more
no clouds below 1500 m and no cumulonimbus
Temporary
from 29 at 10 UTC to 29 at 15 UTC
Wind 15 kt from the West with gusts up to 25 kt

TAF: LFBM 281400Z 2815/2915 21004KT CAVOK TEMPO 2910/2915 26015G25KT

Weather observations and forecasts of more than 4000 airports (METAR and TAF reports).

The available stations are represented by yellow and red dots on the map.

Hover mouse over dot to see the name of the station.

Then click to see weather observations and forecasts.

To change the map : click on the green buttons with a black cross to zoom in, on the green button with a dash to zoom out, or on the green arrows for adjacent maps.


METAR-TAF: